Pilot Boat Vega — VEGA — position and weather

sailwx.info

Track history (hours):
 
Tides and Currents Weather Stations Pressure Air Temp Water Temp Dewpoint Dewpoint Depression Visibility Wind Speed Wind Dir Waves Ship Positions

Pilot Boat Vega

Last reported at 2018-Jan-30 18:02 UTC. Time now 2018-Feb-23 18:33 UTC.
Position N 33°46' W 118°13'.
Warning: this ship's position is 24 days out of date.

Length 16 m; draft 1.5 m.

Type: Pilot. MMSI: 338037843.

Date/timePositionNaut miles runAvg speedWind from/ knotsBaromVisibWave heightAir tempDewpointWater temp
2018-Jan-30 18:02N 33°46' W 118°13'0 1.9
2018-Jan-30 18:00N 33°46' W 118°13'2 4.0
2018-Jan-30 17:30N 33°44' W 118°12'1 1.9
2018-Jan-30 16:59N 33°44' W 118°12'2 3.2
2018-Jan-30 16:27N 33°45' W 118°13'0 0.0
2018-Jan-30 16:00N 33°45' W 118°13'0 0.0
2018-Jan-30 01:22N 33°45' W 118°13'0 0.0
2018-Jan-30 01:00N 33°45' W 118°13'0 0.0
2018-Jan-30 00:30N 33°45' W 118°13'0 0.0
2018-Jan-30 00:00N 33°45' W 118°13'0 0.0
2018-Jan-29 23:30N 33°45' W 118°13'0 0.0
2018-Jan-29 22:40N 33°45' W 118°13'0 0.0
2018-Jan-29 22:30N 33°45' W 118°13'0 0.0
2018-Jan-29 21:57N 33°45' W 118°13'0 0.0
2018-Jan-29 21:29N 33°45' W 118°13'0 0.0
2018-Jan-29 20:58N 33°45' W 118°13'0 0.0
2018-Jan-29 20:30N 33°45' W 118°13'0 0.0
2018-Jan-29 20:00N 33°45' W 118°13'0 0.0
2018-Jan-29 19:28N 33°45' W 118°13'0 0.0
2018-Jan-29 19:00N 33°45' W 118°13'0 0.0
2018-Jan-29 18:27N 33°45' W 118°13'0 0.0
2018-Jan-29 17:56N 33°45' W 118°13'0 0.0
2018-Jan-29 17:25N 33°45' W 118°13'0 0.0
2018-Jan-29 17:00N 33°45' W 118°13'0 0.0
2018-Jan-29 16:30N 33°45' W 118°13'0 0.0
2018-Jan-29 16:00N 33°45' W 118°13'0 0.0
2018-Jan-29 15:29N 33°45' W 118°13'0 0.0
2018-Jan-29 15:01N 33°45' W 118°13'2 0.2
2018-Jan-29 01:29N 33°43' W 118°11'2 4.4
2018-Jan-29 00:56N 33°41' W 118°10'3 7.8
2018-Jan-29 00:30N 33°44' W 118°12'1 2.5
2018-Jan-28 23:59N 33°45' W 118°13'0 0.0
2018-Jan-28 23:29N 33°45' W 118°13'510.4
2018-Jan-28 22:58N 33°40' W 118°11'4 6.7
2018-Jan-28 22:21N 33°44' W 118°10'3 5.7
2018-Jan-28 21:51N 33°41' W 118°11'412.3
2018-Jan-28 21:30N 33°45' W 118°13'0 0.0
2018-Jan-28 21:00N 33°45' W 118°13'0 0.0
2018-Jan-28 20:30N 33°45' W 118°13'0 0.0
2018-Jan-28 20:00N 33°45' W 118°13'0 0.0
2018-Jan-28 19:30N 33°45' W 118°13'0 0.0
2018-Jan-28 19:00N 33°45' W 118°13'0 0.0
2018-Jan-28 18:30N 33°45' W 118°13'0 0.0
2018-Jan-28 18:00N 33°45' W 118°13'0 0.0
2018-Jan-28 17:30N 33°45' W 118°13'0 0.0
2018-Jan-28 17:00N 33°45' W 118°13'0 0.0
2018-Jan-28 16:30N 33°45' W 118°13'0 0.0
2018-Jan-28 15:58N 33°45' W 118°13'0 0.0
2018-Jan-28 15:27N 33°45' W 118°13'0 0.0
2018-Jan-28 15:00N 33°45' W 118°13'0 0.0
2018-Jan-28 01:30N 33°45' W 118°13'0 0.0
2018-Jan-28 00:59N 33°45' W 118°13'0 0.0
2018-Jan-28 00:28N 33°45' W 118°13'0 0.0
2018-Jan-28 00:00N 33°45' W 118°13'0 0.0
2018-Jan-27 23:30N 33°45' W 118°13'0 0.0
2018-Jan-27 22:59N 33°45' W 118°13'0 0.0
2018-Jan-27 22:29N 33°45' W 118°13'0 0.0
2018-Jan-27 22:00N 33°45' W 118°13'0 0.0
2018-Jan-27 21:28N 33°45' W 118°13'0 0.0
2018-Jan-27 20:43N 33°45' W 118°13'0 0.0
2018-Jan-27 20:30N 33°45' W 118°13'0 0.0
2018-Jan-27 19:59N 33°45' W 118°13'0 0.0
2018-Jan-27 18:52N 33°45' W 118°13'0 0.0
2018-Jan-27 18:30N 33°45' W 118°13'0 0.0
2018-Jan-27 18:00N 33°45' W 118°13'0 0.0
2018-Jan-27 17:30N 33°45' W 118°13'0 0.0
2018-Jan-27 17:00N 33°45' W 118°13'0 0.0
2018-Jan-27 16:30N 33°45' W 118°13'0 0.0
2018-Jan-27 16:00N 33°45' W 118°13'0 0.0
2018-Jan-27 15:30N 33°45' W 118°13'0 0.0
2018-Jan-27 15:00N 33°45' W 118°13'0 0.0
2018-Jan-27 01:24N 33°45' W 118°13'0 0.0
2018-Jan-26 21:16N 33°45' W 118°13'0 0.0
2018-Jan-26 20:59N 33°45' W 118°13'0 0.0
2018-Jan-26 20:06N 33°45' W 118°13'0 0.0
2018-Jan-26 19:57N 33°45' W 118°13'0 0.0
2018-Jan-26 19:24N 33°45' W 118°13'0 0.0
2018-Jan-26 18:55N 33°45' W 118°13'0 0.0
2018-Jan-26 18:30N 33°45' W 118°13'0 0.0
2018-Jan-26 17:56N 33°45' W 118°13'0 0.0
2018-Jan-26 15:35N 33°45' W 118°13'0 0.0
2018-Jan-26 15:27N 33°45' W 118°13'  
Track history (hours):
 
Tides and Currents Weather Stations Pressure Air Temp Water Temp Dewpoint Dewpoint Depression Visibility Wind Speed Wind Dir Waves Ship Positions

Pilot Boat Vega

Last reported at 2018-Jan-30 18:02 UTC. Time now 2018-Feb-23 18:33 UTC.
Position N 33°46' W 118°13'.
Warning: this ship's position is 24 days out of date.

Length 16 m; draft 1.5 m.

Type: Pilot. MMSI: 338037843.

Date/timePositionNaut miles runAvg speedWind from/ knotsBaromVisibWave heightAir tempDewpointWater temp
2018-Jan-30 18:02N 33°46' W 118°13'0 1.9
2018-Jan-30 18:00N 33°46' W 118°13'2 4.0
2018-Jan-30 17:30N 33°44' W 118°12'1 1.9
2018-Jan-30 16:59N 33°44' W 118°12'2 3.2
2018-Jan-30 16:27N 33°45' W 118°13'0 0.0
2018-Jan-30 16:00N 33°45' W 118°13'0 0.0
2018-Jan-30 01:22N 33°45' W 118°13'0 0.0
2018-Jan-30 01:00N 33°45' W 118°13'0 0.0
2018-Jan-30 00:30N 33°45' W 118°13'0 0.0
2018-Jan-30 00:00N 33°45' W 118°13'0 0.0
2018-Jan-29 23:30N 33°45' W 118°13'0 0.0
2018-Jan-29 22:40N 33°45' W 118°13'0 0.0
2018-Jan-29 22:30N 33°45' W 118°13'0 0.0
2018-Jan-29 21:57N 33°45' W 118°13'0 0.0
2018-Jan-29 21:29N 33°45' W 118°13'0 0.0
2018-Jan-29 20:58N 33°45' W 118°13'0 0.0
2018-Jan-29 20:30N 33°45' W 118°13'0 0.0
2018-Jan-29 20:00N 33°45' W 118°13'0 0.0
2018-Jan-29 19:28N 33°45' W 118°13'0 0.0
2018-Jan-29 19:00N 33°45' W 118°13'0 0.0
2018-Jan-29 18:27N 33°45' W 118°13'0 0.0
2018-Jan-29 17:56N 33°45' W 118°13'0 0.0
2018-Jan-29 17:25N 33°45' W 118°13'0 0.0
2018-Jan-29 17:00N 33°45' W 118°13'0 0.0
2018-Jan-29 16:30N 33°45' W 118°13'0 0.0
2018-Jan-29 16:00N 33°45' W 118°13'0 0.0
2018-Jan-29 15:29N 33°45' W 118°13'0 0.0
2018-Jan-29 15:01N 33°45' W 118°13'2 0.2
2018-Jan-29 01:29N 33°43' W 118°11'2 4.4
2018-Jan-29 00:56N 33°41' W 118°10'3 7.8
2018-Jan-29 00:30N 33°44' W 118°12'1 2.5
2018-Jan-28 23:59N 33°45' W 118°13'0 0.0
2018-Jan-28 23:29N 33°45' W 118°13'510.4
2018-Jan-28 22:58N 33°40' W 118°11'4 6.7
2018-Jan-28 22:21N 33°44' W 118°10'3 5.7
2018-Jan-28 21:51N 33°41' W 118°11'412.3
2018-Jan-28 21:30N 33°45' W 118°13'0 0.0
2018-Jan-28 21:00N 33°45' W 118°13'0 0.0
2018-Jan-28 20:30N 33°45' W 118°13'0 0.0
2018-Jan-28 20:00N 33°45' W 118°13'0 0.0
2018-Jan-28 19:30N 33°45' W 118°13'0 0.0
2018-Jan-28 19:00N 33°45' W 118°13'0 0.0
2018-Jan-28 18:30N 33°45' W 118°13'0 0.0
2018-Jan-28 18:00N 33°45' W 118°13'0 0.0
2018-Jan-28 17:30N 33°45' W 118°13'0 0.0
2018-Jan-28 17:00N 33°45' W 118°13'0 0.0
2018-Jan-28 16:30N 33°45' W 118°13'0 0.0
2018-Jan-28 15:58N 33°45' W 118°13'0 0.0
2018-Jan-28 15:27N 33°45' W 118°13'0 0.0
2018-Jan-28 15:00N 33°45' W 118°13'0 0.0
2018-Jan-28 01:30N 33°45' W 118°13'0 0.0
2018-Jan-28 00:59N 33°45' W 118°13'0 0.0
2018-Jan-28 00:28N 33°45' W 118°13'0 0.0
2018-Jan-28 00:00N 33°45' W 118°13'0 0.0
2018-Jan-27 23:30N 33°45' W 118°13'0 0.0
2018-Jan-27 22:59N 33°45' W 118°13'0 0.0
2018-Jan-27 22:29N 33°45' W 118°13'0 0.0
2018-Jan-27 22:00N 33°45' W 118°13'0 0.0
2018-Jan-27 21:28N 33°45' W 118°13'0 0.0
2018-Jan-27 20:43N 33°45' W 118°13'0 0.0
2018-Jan-27 20:30N 33°45' W 118°13'0 0.0
2018-Jan-27 19:59N 33°45' W 118°13'0 0.0
2018-Jan-27 18:52N 33°45' W 118°13'0 0.0
2018-Jan-27 18:30N 33°45' W 118°13'0 0.0
2018-Jan-27 18:00N 33°45' W 118°13'0 0.0
2018-Jan-27 17:30N 33°45' W 118°13'0 0.0
2018-Jan-27 17:00N 33°45' W 118°13'0 0.0
2018-Jan-27 16:30N 33°45' W 118°13'0 0.0
2018-Jan-27 16:00N 33°45' W 118°13'0 0.0
2018-Jan-27 15:30N 33°45' W 118°13'0 0.0
2018-Jan-27 15:00N 33°45' W 118°13'0 0.0
2018-Jan-27 01:24N 33°45' W 118°13'0 0.0
2018-Jan-26 21:16N 33°45' W 118°13'0 0.0
2018-Jan-26 20:59N 33°45' W 118°13'0 0.0
2018-Jan-26 20:06N 33°45' W 118°13'0 0.0
2018-Jan-26 19:57N 33°45' W 118°13'0 0.0
2018-Jan-26 19:24N 33°45' W 118°13'0 0.0
2018-Jan-26 18:55N 33°45' W 118°13'0 0.0
2018-Jan-26 18:30N 33°45' W 118°13'0 0.0
2018-Jan-26 17:56N 33°45' W 118°13'0 0.0
2018-Jan-26 15:35N 33°45' W 118°13'0 0.0
2018-Jan-26 15:27N 33°45' W 118°13'  

Dump ship's entire track history